createdAt,value
2022-11-05T00:00:20.240Z,5.60
2022-11-05T00:03:03.275Z,6.10
2022-11-05T00:05:49.813Z,5.80
2022-11-05T00:08:32.731Z,5.70
2022-11-05T00:11:03.031Z,5.60
2022-11-05T00:13:46.358Z,5.90
2022-11-05T00:16:35.256Z,6.10
2022-11-05T00:19:13.625Z,5.90
2022-11-05T00:22:07.308Z,5.90
2022-11-05T00:24:49.813Z,5.80
2022-11-05T00:27:20.789Z,6.00
2022-11-05T00:29:51.013Z,6.00
2022-11-05T00:32:21.023Z,6.00
2022-11-05T00:34:53.235Z,6.00
2022-11-05T00:37:26.763Z,6.40
2022-11-05T00:39:56.788Z,6.00
2022-11-05T00:42:39.955Z,6.00
2022-11-05T00:45:10.988Z,6.20
2022-11-05T00:47:55.548Z,6.20
2022-11-05T00:50:25.979Z,6.30
2022-11-05T00:53:00.975Z,6.30
2022-11-05T00:55:34.793Z,6.40
2022-11-05T00:58:10.423Z,6.40
2022-11-05T01:00:43.059Z,6.50
2022-11-05T01:03:15.665Z,6.50
2022-11-05T01:05:52.510Z,6.40
2022-11-05T01:08:27.955Z,6.60
2022-11-05T01:10:59.870Z,6.70
2022-11-05T01:13:33.425Z,6.80
2022-11-05T01:16:09.388Z,6.50
2022-11-05T01:18:42.121Z,6.50
2022-11-05T01:21:16.466Z,6.40
2022-11-05T01:23:50.809Z,6.40
2022-11-05T01:26:20.713Z,6.40
2022-11-05T01:28:55.416Z,6.40
2022-11-05T01:31:29.017Z,6.40
2022-11-05T01:33:59.212Z,6.50
2022-11-05T01:36:29.783Z,6.40
2022-11-05T01:39:02.288Z,6.40
2022-11-05T01:41:33.838Z,6.40
2022-11-05T01:44:04.112Z,6.40
2022-11-05T01:49:50.458Z,6.40
2022-11-05T01:52:21.025Z,6.70
2022-11-05T01:54:54.137Z,6.40
2022-11-05T01:57:24.369Z,6.50
2022-11-05T01:59:59.570Z,6.40
2022-11-05T02:02:30.461Z,6.60
2022-11-05T02:07:50.037Z,6.70
2022-11-05T02:10:23.602Z,6.60
2022-11-05T02:12:53.854Z,6.60
2022-11-05T02:15:30.155Z,6.80
2022-11-05T02:18:14.205Z,6.70
2022-11-05T02:20:55.947Z,6.60
2022-11-05T02:23:49.904Z,6.40
2022-11-05T02:26:49.994Z,6.40
2022-11-05T02:30:00.043Z,6.30
2022-11-05T02:32:54.161Z,6.30
2022-11-05T02:35:47.517Z,6.70
2022-11-05T02:38:27.853Z,6.70
2022-11-05T02:41:05.990Z,6.20
2022-11-05T02:43:48.443Z,6.40
2022-11-05T02:46:31.598Z,6.00
2022-11-05T02:49:11.578Z,6.20
2022-11-05T02:51:49.594Z,6.10
2022-11-05T02:54:26.342Z,6.20
2022-11-05T02:56:58.914Z,6.20
2022-11-05T02:59:29.296Z,6.00
2022-11-05T03:02:01.119Z,5.90
2022-11-05T03:04:35.419Z,6.00
2022-11-05T03:07:19.789Z,5.90
2022-11-05T03:10:07.258Z,5.80
2022-11-05T03:12:47.576Z,5.70
2022-11-05T03:15:25.127Z,5.70
2022-11-05T03:18:05.819Z,5.80
2022-11-05T03:20:43.245Z,5.60
2022-11-05T03:23:21.253Z,5.60
2022-11-05T03:25:54.345Z,5.40
2022-11-05T03:28:28.785Z,5.70
2022-11-05T03:31:01.751Z,5.60
2022-11-05T03:33:36.473Z,5.30
2022-11-05T03:36:16.199Z,5.30
2022-11-05T03:38:52.021Z,5.20
2022-11-05T03:41:24.237Z,5.00
2022-11-05T03:44:00.470Z,5.10
2022-11-05T03:46:33.253Z,4.90
2022-11-05T03:49:06.999Z,4.60
2022-11-05T03:51:47.903Z,4.40
2022-11-05T03:54:18.844Z,4.30
2022-11-05T03:56:58.843Z,4.20
2022-11-05T03:59:30.321Z,4.30
2022-11-05T04:02:00.875Z,4.30
2022-11-05T04:04:30.764Z,4.30
2022-11-05T04:07:16.322Z,4.10
2022-11-05T04:09:58.706Z,3.80
2022-11-05T04:12:41.853Z,4.10
2022-11-05T04:15:12.049Z,4.60
2022-11-05T04:17:40.255Z,4.60
2022-11-05T04:20:23.581Z,4.90
2022-11-05T04:23:14.047Z,5.00
2022-11-05T04:25:43.865Z,5.10
2022-11-05T04:28:14.414Z,5.50
2022-11-05T04:30:44.261Z,5.30
2022-11-05T04:33:17.002Z,5.30
2022-11-05T04:35:48.440Z,5.40
2022-11-05T04:38:22.896Z,5.40
2022-11-05T04:40:52.705Z,5.40
2022-11-05T04:43:24.247Z,5.40
2022-11-05T04:45:54.338Z,5.40
2022-11-05T04:48:24.771Z,5.40
2022-11-05T04:50:55.081Z,5.60
2022-11-05T04:53:28.500Z,5.40
2022-11-05T04:55:58.475Z,5.50
2022-11-05T04:58:29.019Z,5.50
2022-11-05T05:00:58.887Z,5.90
2022-11-05T05:03:29.841Z,5.70
2022-11-05T05:06:03.954Z,5.90
2022-11-05T05:08:37.689Z,5.80
2022-11-05T05:11:09.726Z,5.60
2022-11-05T05:13:40.537Z,5.70
2022-11-05T05:16:11.955Z,5.80
2022-11-05T05:18:46.071Z,5.60
2022-11-05T05:21:29.930Z,5.40
2022-11-05T05:24:02.739Z,5.50
2022-11-05T05:26:33.406Z,5.50
2022-11-05T05:29:03.591Z,5.50
2022-11-05T05:31:33.529Z,5.50
2022-11-05T05:34:03.416Z,5.60
2022-11-05T05:36:34.831Z,5.70
2022-11-05T05:39:08.205Z,5.70
2022-11-05T05:41:38.010Z,5.90
2022-11-05T05:44:12.016Z,5.80
2022-11-05T05:46:41.886Z,5.60
2022-11-05T05:49:14.448Z,5.70
2022-11-05T05:51:44.282Z,5.70
2022-11-05T05:54:17.722Z,5.80
2022-11-05T05:56:48.678Z,5.70
2022-11-05T05:59:18.563Z,5.80
2022-11-05T06:01:49.176Z,5.80
2022-11-05T06:04:19.475Z,5.70
2022-11-05T06:06:49.582Z,5.90
2022-11-05T06:09:22.207Z,5.90
2022-11-05T06:11:52.370Z,5.80
2022-11-05T06:14:22.274Z,5.90
2022-11-05T06:16:52.711Z,6.10
2022-11-05T06:19:22.580Z,5.90
2022-11-05T06:21:53.262Z,6.00
2022-11-05T06:24:26.250Z,5.90
2022-11-05T06:26:56.863Z,6.00
2022-11-05T06:29:26.773Z,6.10
2022-11-05T06:31:57.638Z,5.90
2022-11-05T06:34:27.833Z,5.90
2022-11-05T06:36:58.491Z,5.90
2022-11-05T06:39:31.215Z,6.10
2022-11-05T06:42:17.795Z,6.00
2022-11-05T06:44:48.607Z,6.00
2022-11-05T06:47:19.282Z,6.00
2022-11-05T06:49:49.754Z,6.00
2022-11-05T06:52:20.883Z,6.00
2022-11-05T06:54:53.664Z,6.10
2022-11-05T06:57:23.759Z,6.00
2022-11-05T06:59:59.969Z,5.90
2022-11-05T07:02:31.609Z,5.90
2022-11-05T07:05:03.245Z,5.90
2022-11-05T07:07:34.550Z,5.90
2022-11-05T07:10:07.702Z,5.90
2022-11-05T07:12:37.804Z,6.00
2022-11-05T07:15:09.204Z,5.90
2022-11-05T07:17:39.251Z,5.70
2022-11-05T07:20:11.458Z,5.80
2022-11-05T07:22:41.784Z,5.70
2022-11-05T07:25:15.223Z,5.80
2022-11-05T07:27:45.639Z,5.80
2022-11-05T07:30:15.801Z,5.70
2022-11-05T07:32:46.290Z,5.70
2022-11-05T07:35:16.394Z,5.90
2022-11-05T07:37:47.043Z,5.80
2022-11-05T07:40:21.350Z,5.90
2022-11-05T07:42:53.810Z,5.80
2022-11-05T07:45:24.439Z,5.90
2022-11-05T07:47:56.004Z,6.00
2022-11-05T07:50:30.248Z,5.90
2022-11-05T07:53:04.210Z,5.60
2022-11-05T07:55:37.160Z,5.70
2022-11-05T07:58:07.958Z,5.90
2022-11-05T08:00:38.135Z,5.70
2022-11-05T08:03:10.454Z,5.70
2022-11-05T08:05:44.563Z,5.70
2022-11-05T08:08:18.093Z,5.50
2022-11-05T08:10:50.768Z,5.70
2022-11-05T08:13:21.880Z,5.50
2022-11-05T08:15:51.800Z,5.80
2022-11-05T08:18:22.605Z,5.30
2022-11-05T08:20:52.752Z,5.70
2022-11-05T08:23:23.317Z,5.90
2022-11-05T08:25:56.278Z,5.40
2022-11-05T08:28:27.466Z,5.40
2022-11-05T08:30:59.112Z,5.40
2022-11-05T08:33:31.876Z,5.40
2022-11-05T08:36:05.603Z,5.40
2022-11-05T08:38:36.029Z,5.40
2022-11-05T08:41:08.941Z,5.20
2022-11-05T08:43:39.637Z,5.50
2022-11-05T08:46:09.585Z,5.40
2022-11-05T08:48:39.622Z,5.50
2022-11-05T08:51:09.633Z,5.60
2022-11-05T08:53:39.713Z,5.50
2022-11-05T08:56:12.360Z,5.40
2022-11-05T08:58:42.656Z,5.40
2022-11-05T09:01:12.612Z,5.40
2022-11-05T09:03:43.005Z,5.40
2022-11-05T09:06:13.051Z,5.50
2022-11-05T09:08:43.226Z,5.50
2022-11-05T09:11:16.606Z,5.50
2022-11-05T09:13:46.872Z,5.50
2022-11-05T09:16:22.228Z,5.50
2022-11-05T09:18:53.233Z,5.40
2022-11-05T09:21:23.524Z,5.40
2022-11-05T09:23:53.699Z,5.40
2022-11-05T09:26:26.261Z,5.40
2022-11-05T09:28:56.974Z,5.40
2022-11-05T09:31:26.968Z,5.40
2022-11-05T09:33:56.943Z,5.40
2022-11-05T09:36:26.912Z,5.50
2022-11-05T09:38:57.154Z,5.50
2022-11-05T09:41:33.274Z,5.50
2022-11-05T09:44:08.385Z,5.70
2022-11-05T09:46:44.475Z,5.60
2022-11-05T09:49:25.723Z,5.80
2022-11-05T09:51:57.155Z,5.60
2022-11-05T09:54:31.835Z,5.60
2022-11-05T09:57:06.099Z,5.70
2022-11-05T09:59:41.565Z,5.60
2022-11-05T10:02:16.593Z,5.60
2022-11-05T10:04:50.682Z,5.60
2022-11-05T10:07:27.731Z,5.80
2022-11-05T10:10:02.317Z,5.60
2022-11-05T10:12:40.131Z,5.70
2022-11-05T10:15:16.675Z,6.00
2022-11-05T10:17:51.897Z,6.00
2022-11-05T10:20:27.350Z,5.90
2022-11-05T10:23:01.627Z,6.10
2022-11-05T10:25:35.824Z,6.30
2022-11-05T10:28:10.686Z,6.20
2022-11-05T10:30:40.864Z,6.30
2022-11-05T10:33:14.793Z,6.20
2022-11-05T10:35:57.674Z,6.30
2022-11-05T10:38:27.949Z,6.40
2022-11-05T10:41:06.364Z,6.00
2022-11-05T10:43:44.506Z,6.10
2022-11-05T10:46:28.608Z,6.00
2022-11-05T10:49:20.436Z,6.20
2022-11-05T10:51:58.967Z,6.10
2022-11-05T10:54:36.438Z,6.10
2022-11-05T10:57:43.650Z,6.10
2022-11-05T11:00:29.209Z,6.30
2022-11-05T11:03:01.912Z,6.30
2022-11-05T11:05:34.269Z,6.60
2022-11-05T11:08:19.669Z,6.40
2022-11-05T11:10:53.195Z,6.50
2022-11-05T11:13:27.614Z,6.60
2022-11-05T11:16:15.856Z,6.80
2022-11-05T11:18:46.737Z,7.00
2022-11-05T11:21:19.696Z,7.30
2022-11-05T11:23:59.126Z,7.30
2022-11-05T11:26:31.519Z,7.50
2022-11-05T11:29:09.405Z,7.20
2022-11-05T11:31:42.233Z,7.30
2022-11-05T11:34:19.966Z,7.50
2022-11-05T11:36:51.706Z,7.40
2022-11-05T11:39:25.583Z,7.30
2022-11-05T11:41:57.781Z,7.60
2022-11-05T11:44:33.218Z,7.30
2022-11-05T11:47:07.779Z,7.60
2022-11-05T11:49:45.492Z,7.40
2022-11-05T11:52:19.772Z,7.70
2022-11-05T11:54:49.839Z,7.90
2022-11-05T11:57:25.361Z,7.70
2022-11-05T12:00:09.161Z,8.10
2022-11-05T12:03:02.642Z,8.10
2022-11-05T12:05:46.449Z,8.60
2022-11-05T12:08:32.545Z,8.70
2022-11-05T12:11:09.423Z,8.50
2022-11-05T12:14:04.554Z,8.40
2022-11-05T12:17:07.602Z,8.40
2022-11-05T12:20:25.081Z,8.60
2022-11-05T12:23:24.696Z,8.10
2022-11-05T12:25:59.855Z,8.40
2022-11-05T12:29:17.751Z,8.00
2022-11-05T12:31:57.876Z,8.00
2022-11-05T12:34:41.626Z,8.10
2022-11-05T12:37:23.268Z,8.10
2022-11-05T12:40:20.881Z,8.20
2022-11-05T12:43:10.611Z,8.10
2022-11-05T12:45:49.649Z,8.30
2022-11-05T12:48:45.424Z,8.20
2022-11-05T12:51:29.159Z,8.10
2022-11-05T12:54:20.177Z,7.90
2022-11-05T12:56:58.223Z,7.50
2022-11-05T12:59:34.269Z,7.80
2022-11-05T13:02:13.459Z,8.10
2022-11-05T13:04:48.984Z,8.20
2022-11-05T13:07:25.730Z,7.90
2022-11-05T13:10:00.015Z,7.80
2022-11-05T13:12:38.105Z,7.70
2022-11-05T13:15:27.070Z,7.90
2022-11-05T13:18:01.195Z,8.10
2022-11-05T13:20:35.031Z,8.20
2022-11-05T13:23:16.242Z,8.30
2022-11-05T13:25:52.302Z,8.20
2022-11-05T13:28:35.622Z,8.10
2022-11-05T13:31:08.612Z,8.30
2022-11-05T13:33:42.075Z,8.60
2022-11-05T13:36:28.633Z,8.60
2022-11-05T13:39:09.251Z,8.90
2022-11-05T13:41:57.395Z,8.80
2022-11-05T13:44:52.968Z,8.90
2022-11-05T13:47:39.720Z,8.90
2022-11-05T13:50:31.581Z,8.80
2022-11-05T13:53:29.968Z,8.80
2022-11-05T13:56:05.357Z,9.20
2022-11-05T13:58:47.954Z,8.90
2022-11-05T14:01:32.921Z,8.90
2022-11-05T14:04:03.487Z,9.00
2022-11-05T14:06:36.923Z,9.00
2022-11-05T14:09:14.143Z,9.00
2022-11-05T14:11:51.147Z,8.80
2022-11-05T14:14:25.478Z,8.70
2022-11-05T14:17:15.932Z,8.70
2022-11-05T14:20:25.851Z,8.70
2022-11-05T14:22:56.790Z,8.50
2022-11-05T14:26:04.051Z,8.50
2022-11-05T14:28:44.934Z,8.50
2022-11-05T14:32:12.046Z,8.00
2022-11-05T14:34:51.303Z,7.70
2022-11-05T14:37:27.294Z,7.60
2022-11-05T14:39:58.223Z,7.50
2022-11-05T14:42:31.171Z,7.60
2022-11-05T14:45:30.325Z,7.70
2022-11-05T14:48:02.404Z,8.10
2022-11-05T14:50:42.042Z,7.90
2022-11-05T14:53:27.987Z,8.10
2022-11-05T14:56:05.713Z,8.20
2022-11-05T14:58:38.944Z,7.80
2022-11-05T15:01:10.691Z,8.10
2022-11-05T15:04:04.014Z,7.60
2022-11-05T15:06:38.529Z,7.40
2022-11-05T15:09:31.950Z,7.40
2022-11-05T15:12:14.282Z,7.20
2022-11-05T15:14:56.148Z,7.10
2022-11-05T15:17:30.783Z,7.10
2022-11-05T15:20:11.220Z,7.10
2022-11-05T15:22:46.335Z,6.70
2022-11-05T15:25:20.746Z,6.60
2022-11-05T15:28:01.547Z,6.50
2022-11-05T15:30:31.527Z,6.50
2022-11-05T15:33:13.208Z,6.20
2022-11-05T15:35:44.514Z,6.30
2022-11-05T15:38:35.972Z,6.30
2022-11-05T15:41:08.740Z,6.20
2022-11-05T15:43:48.051Z,6.20
2022-11-05T15:46:20.697Z,6.30
2022-11-05T15:48:57.260Z,6.10
2022-11-05T15:51:29.149Z,6.20
2022-11-05T15:56:58.660Z,5.90
2022-11-05T15:59:32.380Z,5.50
2022-11-05T16:02:08.856Z,5.80
2022-11-05T16:04:39.825Z,5.60
2022-11-05T16:07:12.305Z,5.60
2022-11-05T16:09:53.696Z,5.60
2022-11-05T16:12:34.298Z,5.60
2022-11-05T16:15:23.302Z,5.60
2022-11-05T16:17:57.916Z,5.60
2022-11-05T16:20:32.671Z,5.80
2022-11-05T16:23:04.480Z,5.70
2022-11-05T16:25:47.264Z,5.60
2022-11-05T16:28:26.367Z,5.80
2022-11-05T16:30:58.516Z,5.70
2022-11-05T16:33:34.360Z,5.70
2022-11-05T16:36:04.433Z,5.60
2022-11-05T16:38:35.395Z,6.00
2022-11-05T16:41:08.149Z,5.80
2022-11-05T16:43:38.569Z,5.70
2022-11-05T16:46:09.482Z,5.60
2022-11-05T16:48:39.870Z,5.60
2022-11-05T16:51:12.152Z,5.90
2022-11-05T16:53:44.633Z,5.70
2022-11-05T16:56:22.969Z,5.60
2022-11-05T16:58:53.985Z,5.60
2022-11-05T17:01:26.964Z,5.80
2022-11-05T17:03:59.094Z,5.60
2022-11-05T17:06:29.014Z,5.40
2022-11-05T17:08:59.294Z,5.90
2022-11-05T17:11:32.701Z,5.80
2022-11-05T17:14:02.957Z,5.60
2022-11-05T17:16:32.917Z,5.60
2022-11-05T17:19:03.241Z,5.60
2022-11-05T17:21:33.758Z,5.70
2022-11-05T17:24:05.509Z,5.70
2022-11-05T17:26:38.708Z,5.70
2022-11-05T17:29:09.253Z,6.10
2022-11-05T17:31:41.613Z,6.10
2022-11-05T17:34:12.515Z,6.00
2022-11-05T17:36:43.478Z,6.00
2022-11-05T17:39:16.958Z,6.10
2022-11-05T17:41:50.049Z,6.00
2022-11-05T17:44:20.663Z,6.00
2022-11-05T17:46:51.274Z,6.10
2022-11-05T17:49:21.280Z,6.00
2022-11-05T17:51:51.533Z,5.80
2022-11-05T17:54:23.011Z,5.80
2022-11-05T17:56:57.751Z,5.80
2022-11-05T17:59:31.168Z,5.70
2022-11-05T18:02:01.491Z,5.80
2022-11-05T18:04:32.641Z,5.70
2022-11-05T18:07:03.371Z,5.80
2022-11-05T18:09:34.361Z,5.90
2022-11-05T18:12:07.802Z,5.70
2022-11-05T18:14:38.195Z,5.70
2022-11-05T18:17:08.879Z,5.60
2022-11-05T18:19:40.263Z,5.80
2022-11-05T18:22:10.352Z,5.50
2022-11-05T18:24:41.008Z,5.40
2022-11-05T18:27:13.797Z,5.60
2022-11-05T18:29:44.349Z,5.30
2022-11-05T18:32:14.579Z,5.40
2022-11-05T18:34:45.514Z,5.60
2022-11-05T18:37:15.504Z,5.40
2022-11-05T18:39:46.976Z,5.80
2022-11-05T18:42:19.641Z,5.90
2022-11-05T18:44:50.362Z,5.80
2022-11-05T18:47:20.611Z,6.30
2022-11-05T18:49:51.054Z,6.00
2022-11-05T18:52:20.914Z,5.90
2022-11-05T18:54:51.157Z,5.90
2022-11-05T18:57:24.678Z,6.00
2022-11-05T18:59:55.293Z,5.70
2022-11-05T19:02:26.343Z,5.70
2022-11-05T19:07:47.329Z,5.80
2022-11-05T19:10:17.589Z,5.70
2022-11-05T19:12:51.359Z,6.00
2022-11-05T19:15:21.778Z,5.60
2022-11-05T19:17:52.127Z,6.00
2022-11-05T19:20:22.248Z,5.50
2022-11-05T19:22:52.746Z,5.60
2022-11-05T19:25:22.785Z,5.80
2022-11-05T19:27:58.478Z,5.80
2022-11-05T19:30:29.115Z,5.90
2022-11-05T19:33:00.080Z,6.10
2022-11-05T19:35:30.041Z,5.90
2022-11-05T19:38:00.745Z,6.10
2022-11-05T19:40:31.052Z,5.70
2022-11-05T19:43:04.500Z,5.80
2022-11-05T19:45:49.823Z,6.00
2022-11-05T19:48:21.400Z,6.40
2022-11-05T19:50:51.544Z,6.20
2022-11-05T19:53:22.362Z,6.20
2022-11-05T19:55:52.535Z,6.10
2022-11-05T19:58:26.012Z,6.00
2022-11-05T20:00:58.700Z,6.00
2022-11-05T20:03:29.640Z,6.10
2022-11-05T20:06:11.536Z,6.00
2022-11-05T20:08:59.848Z,6.10
2022-11-05T20:11:32.446Z,5.80
2022-11-05T20:14:05.106Z,5.80
2022-11-05T20:16:38.209Z,5.80
2022-11-05T20:19:09.580Z,5.60
2022-11-05T20:21:39.805Z,5.80
2022-11-05T20:24:11.200Z,5.80
2022-11-05T20:26:42.371Z,5.70
2022-11-05T20:29:15.606Z,6.10
2022-11-05T20:31:45.701Z,5.70
2022-11-05T20:34:15.642Z,6.00
2022-11-05T20:36:45.837Z,5.60
2022-11-05T20:39:15.938Z,5.60
2022-11-05T20:41:46.563Z,5.80
2022-11-05T20:44:19.091Z,5.50
2022-11-05T20:46:49.288Z,5.70
2022-11-05T20:49:24.922Z,5.60
2022-11-05T20:51:56.036Z,5.60
2022-11-05T20:54:26.840Z,5.50
2022-11-05T20:56:57.031Z,5.50
2022-11-05T20:59:29.549Z,5.60
2022-11-05T21:02:00.081Z,5.50
2022-11-05T21:04:30.031Z,5.60
2022-11-05T21:07:01.152Z,5.20
2022-11-05T21:09:31.254Z,5.30
2022-11-05T21:12:14.174Z,5.30
2022-11-05T21:14:47.133Z,5.40
2022-11-05T21:17:17.607Z,5.40
2022-11-05T21:19:47.638Z,5.60
2022-11-05T21:22:18.432Z,5.50
2022-11-05T21:24:48.299Z,5.70
2022-11-05T21:27:18.500Z,5.50
2022-11-05T21:29:51.019Z,5.40
2022-11-05T21:32:21.360Z,5.60
2022-11-05T21:34:51.239Z,5.50
2022-11-05T21:37:22.258Z,5.60
2022-11-05T21:39:52.438Z,5.20
2022-11-05T21:42:23.055Z,5.20
2022-11-05T21:45:00.178Z,5.30
2022-11-05T21:47:31.520Z,5.40
2022-11-05T21:50:03.814Z,5.40
2022-11-05T21:52:46.535Z,5.30
2022-11-05T21:55:38.362Z,5.50
2022-11-05T21:58:28.782Z,5.20
2022-11-05T22:01:02.673Z,5.20
2022-11-05T22:03:32.582Z,5.30
2022-11-05T22:06:02.933Z,5.40
2022-11-05T22:08:32.816Z,5.20
2022-11-05T22:11:06.378Z,5.20
2022-11-05T22:13:36.343Z,5.20
2022-11-05T22:16:10.335Z,5.20
2022-11-05T22:18:40.220Z,5.30
2022-11-05T22:21:10.497Z,5.50
2022-11-05T22:23:40.425Z,5.20
2022-11-05T22:26:10.566Z,5.20
2022-11-05T22:28:40.884Z,5.30
2022-11-05T22:31:18.409Z,5.00
2022-11-05T22:33:48.346Z,5.20
2022-11-05T22:36:18.949Z,5.20
2022-11-05T22:38:48.850Z,5.20
2022-11-05T22:41:22.347Z,5.30
2022-11-05T22:43:52.574Z,5.20
2022-11-05T22:46:27.816Z,5.30
2022-11-05T22:48:58.325Z,5.30
2022-11-05T22:51:31.452Z,5.10
2022-11-05T22:54:01.911Z,5.00
2022-11-05T22:56:35.370Z,5.10
2022-11-05T22:59:05.938Z,5.00
2022-11-05T23:01:39.254Z,5.00
2022-11-05T23:04:10.349Z,5.00
2022-11-05T23:06:53.171Z,5.10
2022-11-05T23:09:37.811Z,5.00
2022-11-05T23:12:22.457Z,5.10
2022-11-05T23:14:52.651Z,4.80
2022-11-05T23:17:38.514Z,4.90
2022-11-05T23:20:23.570Z,4.90
2022-11-05T23:23:06.750Z,5.00
2022-11-05T23:25:36.694Z,5.00
2022-11-05T23:28:13.879Z,4.80
2022-11-05T23:30:59.044Z,4.90
2022-11-05T23:33:35.313Z,4.90
2022-11-05T23:36:18.417Z,4.70
2022-11-05T23:38:48.558Z,5.00
2022-11-05T23:41:31.603Z,5.00
2022-11-05T23:44:13.938Z,4.60
2022-11-05T23:46:56.855Z,4.70
2022-11-05T23:49:29.864Z,4.40
2022-11-05T23:52:00.412Z,4.40
2022-11-05T23:54:30.320Z,4.30
2022-11-05T23:57:00.986Z,4.30
2022-11-05T23:59:30.940Z,4.20
